Time;durP1;ratioP1;P1;durP2;ratioP2;P2;SDS_P1;SDS_P2;PMS_P1;PMS_P2;Temp;Humidity;BMP_temperature;BMP_pressure;BME280_temperature;BME280_humidity;BME280_pressure;Samples;Min_cycle;Max_cycle;Signal;HPM_P1;HPM_P2
2022/03/13 00:00:59;;;;;;;;;;;;;;;6.19;42.66;98094.69;5119301;28;19924;-58
2022/03/13 00:03:28;;;;;;;;;;;;;;;6.25;42.62;98093.75;5109684;28;19930;-58
2022/03/13 00:05:54;;;;;;;;;;;;;;;6.24;42.66;98096.66;5121703;28;19924;-57
2022/03/13 00:08:24;;;;;;;;;;;;;;;6.23;42.41;98092.38;5127729;28;19924;-59
2022/03/13 00:10:56;;;;;;;;;;;;;;;6.21;42.59;98091.81;5120152;28;19931;-58
2022/03/13 00:13:24;;;;;;;;;;;;;;;6.26;42.32;98076.81;5119013;28;19942;-59
2022/03/13 00:15:52;;;;;;;;;;;;;;;6.22;42.31;98088.91;5120705;28;19931;-57
2022/03/13 00:18:18;;;;;;;;;;;;;;;6.28;42.50;98095.16;5122246;28;19924;-57
2022/03/13 00:20:46;;;;;;;;;;;;;;;6.21;42.29;98082.03;5121147;28;19931;-58
2022/03/13 00:23:13;;;;;;;;;;;;;;;6.12;42.11;98085.25;5118964;28;20020;-58
2022/03/13 00:25:39;;;;;;;;;;;;;;;6.13;42.63;98076.25;5119130;28;19964;-58
2022/03/13 00:28:07;;;;;;;;;;;;;;;6.00;42.35;98085.25;5122268;28;19924;-58
2022/03/13 00:30:35;;;;;;;;;;;;;;;5.74;42.50;98075.84;5122387;28;19959;-59
2022/03/13 00:33:01;;;;;;;;;;;;;;;5.51;42.95;98075.78;5118714;28;19938;-58
2022/03/13 00:35:27;;;;;;;;;;;;;;;5.88;42.98;98077.25;5118732;28;20007;-58
2022/03/13 00:37:56;;;;;;;;;;;;;;;5.74;42.63;98070.53;5126310;28;19932;-58
2022/03/13 00:40:22;;;;;;;;;;;;;;;5.81;43.02;98071.25;5121767;28;19932;-58
2022/03/13 00:42:49;;;;;;;;;;;;;;;5.75;42.81;98068.69;5102189;28;19947;-58
2022/03/13 00:45:15;;;;;;;;;;;;;;;5.87;42.88;98064.25;5118576;28;19970;-58
2022/03/13 00:47:42;;;;;;;;;;;;;;;5.94;42.63;98070.25;5119372;28;19924;-58
2022/03/13 00:50:09;;;;;;;;;;;;;;;6.00;42.33;98074.66;5121861;28;19999;-58
2022/03/13 00:52:35;;;;;;;;;;;;;;;6.04;42.36;98062.53;5121979;28;19924;-58
2022/03/13 00:55:03;;;;;;;;;;;;;;;6.06;42.24;98062.31;5109813;28;19999;-58
2022/03/13 00:57:29;;;;;;;;;;;;;;;5.97;42.28;98065.28;5109856;28;19995;-58
2022/03/13 00:59:56;;;;;;;;;;;;;;;5.94;42.14;98071.03;5109811;28;19928;-58
2022/03/13 01:02:22;;;;;;;;;;;;;;;5.90;42.18;98075.22;5109802;28;19955;-58
2022/03/13 01:04:49;;;;;;;;;;;;;;;5.91;42.34;98062.75;5109932;28;19947;-58
2022/03/13 01:07:15;;;;;;;;;;;;;;;5.90;42.25;98063.78;5112080;28;19991;-58
2022/03/13 01:10:08;;;;;;;;;;;;;;;5.90;42.15;98061.97;5121695;28;19995;-58
2022/03/13 01:12:36;;;;;;;;;;;;;;;5.93;42.17;98063.34;5121901;28;19966;-58
2022/03/13 01:15:02;;;;;;;;;;;;;;;5.96;42.08;98052.28;5117993;28;19955;-58
2022/03/13 01:17:28;;;;;;;;;;;;;;;5.88;42.14;98060.56;5118193;28;19956;-58
2022/03/13 01:19:55;;;;;;;;;;;;;;;5.89;42.21;98062.97;5120790;28;19959;-58
2022/03/13 01:22:21;;;;;;;;;;;;;;;5.82;41.95;98049.00;5121719;28;19995;-57
2022/03/13 01:24:47;;;;;;;;;;;;;;;5.87;42.10;98059.75;5120069;28;19991;-57
2022/03/13 01:27:15;;;;;;;;;;;;;;;5.79;42.03;98051.28;5118784;28;19953;-58
2022/03/13 01:29:43;;;;;;;;;;;;;;;5.82;42.20;98046.34;5123006;28;19948;-58
2022/03/13 01:32:11;;;;;;;;;;;;;;;5.79;42.30;98046.78;5125416;28;19934;-58
2022/03/13 01:34:39;;;;;;;;;;;;;;;5.80;42.43;98047.63;5125177;28;19931;-59
2022/03/13 01:37:07;;;;;;;;;;;;;;;5.79;42.34;98036.19;5122863;28;20025;-58
2022/03/13 01:39:34;;;;;;;;;;;;;;;5.85;42.42;98032.66;5125864;28;19928;-59
2022/03/13 01:42:00;;;;;;;;;;;;;;;5.82;42.25;98041.03;5125040;28;19983;-57
2022/03/13 01:44:27;;;;;;;;;;;;;;;5.76;42.13;98041.16;5125257;28;20007;-57
2022/03/13 01:46:55;;;;;;;;;;;;;;;5.76;42.12;98041.16;5122724;28;19923;-58
2022/03/13 01:49:21;;;;;;;;;;;;;;;5.71;42.11;98038.38;5121801;28;20082;-58
2022/03/13 01:51:48;;;;;;;;;;;;;;;5.72;42.28;98029.41;5123204;28;19987;-57
2022/03/13 01:54:14;;;;;;;;;;;;;;;5.58;42.24;98031.44;5125108;28;19923;-57
2022/03/13 01:56:41;;;;;;;;;;;;;;;5.62;42.28;98034.47;5124364;28;20014;-57
2022/03/13 01:59:09;;;;;;;;;;;;;;;5.61;42.18;98028.34;5121549;28;19924;-57
2022/03/13 02:01:35;;;;;;;;;;;;;;;5.62;42.17;98032.63;5121452;28;19934;-57
2022/03/13 02:04:03;;;;;;;;;;;;;;;5.60;42.26;98031.25;5112842;28;20675;-58
2022/03/13 02:06:30;;;;;;;;;;;;;;;5.63;42.22;98026.25;5112866;28;19991;-57
2022/03/13 02:08:56;;;;;;;;;;;;;;;5.50;42.09;98015.91;5126322;28;20015;-58
2022/03/13 02:11:24;;;;;;;;;;;;;;;5.42;42.35;98019.66;5121247;28;19987;-57
2022/03/13 02:13:52;;;;;;;;;;;;;;;5.52;42.13;98018.31;5123211;28;19932;-57
2022/03/13 02:16:19;;;;;;;;;;;;;;;5.52;42.06;98015.66;5125030;28;19958;-57
2022/03/13 02:18:48;;;;;;;;;;;;;;;5.52;42.19;98021.75;5123526;28;20660;-57
2022/03/13 02:21:16;;;;;;;;;;;;;;;5.54;42.08;98008.31;5121266;28;19924;-58
2022/03/13 02:23:44;;;;;;;;;;;;;;;5.47;42.15;98005.75;5122277;28;19931;-58
2022/03/13 02:26:10;;;;;;;;;;;;;;;5.44;41.92;98007.03;5124906;28;19923;-57
2022/03/13 02:28:38;;;;;;;;;;;;;;;5.45;41.83;98003.31;5124707;28;20155;-58
2022/03/13 02:31:05;;;;;;;;;;;;;;;5.39;41.91;97998.94;5121231;28;19947;-57
2022/03/13 02:33:31;;;;;;;;;;;;;;;5.28;42.10;98002.38;5121271;28;20723;-58
2022/03/13 02:35:59;;;;;;;;;;;;;;;5.30;41.94;97992.34;5124206;28;19923;-58
2022/03/13 02:38:26;;;;;;;;;;;;;;;5.32;42.14;97992.94;5129840;28;19924;-57
2022/03/13 02:40:55;;;;;;;;;;;;;;;5.22;42.02;97998.00;5121966;28;19959;-57
2022/03/13 02:43:22;;;;;;;;;;;;;;;4.89;42.23;97998.44;5121159;28;20531;-57
2022/03/13 02:45:48;;;;;;;;;;;;;;;4.58;42.19;97997.88;5122698;28;19924;-59
2022/03/13 02:48:17;;;;;;;;;;;;;;;4.66;42.85;97992.25;5124757;28;20078;-58
2022/03/13 02:50:43;;;;;;;;;;;;;;;4.32;42.99;97988.41;5123434;28;19924;-58
2022/03/13 02:53:10;;;;;;;;;;;;;;;4.60;43.18;97988.66;5121023;28;19955;-58
2022/03/13 02:55:36;;;;;;;;;;;;;;;4.60;43.12;97993.16;5120841;28;20413;-58
2022/03/13 02:58:04;;;;;;;;;;;;;;;4.53;42.56;97995.88;5124233;28;19928;-57
2022/03/13 03:00:42;;;;;;;;;;;;;;;4.59;43.01;97986.22;5124015;28;19932;-59
2022/03/13 03:03:08;;;;;;;;;;;;;;;4.69;42.91;97992.63;5120799;28;20037;-58
2022/03/13 03:05:35;;;;;;;;;;;;;;;4.78;42.38;98003.69;5120812;28;19983;-57
2022/03/13 03:08:01;;;;;;;;;;;;;;;4.85;42.63;98007.06;5121002;28;20797;-57
2022/03/13 03:10:28;;;;;;;;;;;;;;;4.94;42.33;98012.84;5124260;28;19934;-58
2022/03/13 03:12:54;;;;;;;;;;;;;;;4.90;42.22;98008.00;5121339;28;20333;-57
2022/03/13 03:15:23;;;;;;;;;;;;;;;4.89;42.22;98005.56;5120353;28;20020;-58
2022/03/13 03:17:49;;;;;;;;;;;;;;;5.00;42.11;98004.00;5122255;28;19928;-57
2022/03/13 03:20:16;;;;;;;;;;;;;;;5.01;42.29;98005.63;5123878;28;19969;-57
2022/03/13 03:22:42;;;;;;;;;;;;;;;5.08;42.07;98007.16;5122911;28;19955;-58
2022/03/13 03:25:09;;;;;;;;;;;;;;;5.06;41.78;98009.22;5120257;28;19930;-58
2022/03/13 03:27:35;;;;;;;;;;;;;;;5.04;41.89;98005.19;5120373;28;19991;-58
2022/03/13 03:30:03;;;;;;;;;;;;;;;5.05;41.87;98012.88;5111529;28;19947;-57
2022/03/13 03:32:31;;;;;;;;;;;;;;;5.06;41.75;98014.50;5111934;28;19924;-58
2022/03/13 03:34:57;;;;;;;;;;;;;;;5.06;41.87;98011.88;5111601;28;19932;-58
2022/03/13 03:37:23;;;;;;;;;;;;;;;5.04;41.98;98021.88;5115090;28;20047;-57
2022/03/13 03:39:50;;;;;;;;;;;;;;;5.00;41.93;98017.25;5123402;28;19962;-57
2022/03/13 03:42:16;;;;;;;;;;;;;;;4.98;41.91;98017.50;5123331;28;19924;-57
2022/03/13 03:44:42;;;;;;;;;;;;;;;4.99;41.98;98026.22;5122403;28;19923;-58
2022/03/13 03:47:09;;;;;;;;;;;;;;;4.94;41.96;98018.97;5119924;28;19970;-57
2022/03/13 03:49:37;;;;;;;;;;;;;;;4.95;41.99;98015.28;5119719;28;19947;-57
2022/03/13 03:52:04;;;;;;;;;;;;;;;4.92;42.06;98023.66;5110944;28;20082;-57
2022/03/13 03:54:30;;;;;;;;;;;;;;;4.89;41.87;98019.63;5111330;28;19992;-57
2022/03/13 03:56:56;;;;;;;;;;;;;;;4.93;42.06;98027.09;5111262;28;19928;-57
2022/03/13 03:59:23;;;;;;;;;;;;;;;4.89;41.96;98016.16;5111287;28;19951;-57
2022/03/13 04:01:50;;;;;;;;;;;;;;;4.90;42.04;98025.72;5110692;28;19959;-57
2022/03/13 04:04:17;;;;;;;;;;;;;;;4.88;42.08;98031.25;5101392;28;19967;-58
2022/03/13 04:06:45;;;;;;;;;;;;;;;4.85;42.08;98037.00;5102350;28;19987;-58
2022/03/13 04:09:12;;;;;;;;;;;;;;;4.88;42.19;98035.72;5126304;28;20003;-58
2022/03/13 04:11:40;;;;;;;;;;;;;;;4.85;42.06;98044.13;5119521;28;19999;-58
2022/03/13 04:14:08;;;;;;;;;;;;;;;4.84;41.91;98042.50;5122815;28;20647;-58
2022/03/13 04:16:35;;;;;;;;;;;;;;;4.67;42.37;98042.28;5122837;28;19920;-58
2022/03/13 04:19:01;;;;;;;;;;;;;;;4.62;42.36;98033.41;5119144;28;19924;-58
2022/03/13 04:21:28;;;;;;;;;;;;;;;4.66;42.37;98029.28;5119381;28;19992;-58
2022/03/13 04:23:56;;;;;;;;;;;;;;;4.73;42.27;98030.03;5121817;28;20050;-59
2022/03/13 04:26:23;;;;;;;;;;;;;;;4.75;42.17;98033.25;5122928;28;19962;-58
2022/03/13 04:28:49;;;;;;;;;;;;;;;4.67;42.29;98033.56;5120735;28;19930;-57
2022/03/13 04:31:16;;;;;;;;;;;;;;;4.68;42.10;98033.31;5119213;28;19924;-57
2022/03/13 04:33:42;;;;;;;;;;;;;;;4.66;42.03;98030.09;5119898;28;19987;-59
2022/03/13 04:36:12;;;;;;;;;;;;;;;4.65;42.17;98044.34;5122620;28;19924;-58
2022/03/13 04:38:38;;;;;;;;;;;;;;;4.53;42.43;98040.00;5127545;28;19991;-58
2022/03/13 04:41:06;;;;;;;;;;;;;;;4.56;42.34;98037.75;5118783;28;20015;-57
2022/03/13 04:43:32;;;;;;;;;;;;;;;4.58;42.25;98040.19;5119039;28;19999;-58
2022/03/13 04:45:59;;;;;;;;;;;;;;;4.55;42.45;98046.69;5121840;28;20014;-57
2022/03/13 04:48:26;;;;;;;;;;;;;;;4.59;42.18;98042.59;5122601;28;19995;-57
2022/03/13 04:50:52;;;;;;;;;;;;;;;4.61;41.97;98043.16;5119970;28;20002;-57
2022/03/13 04:53:19;;;;;;;;;;;;;;;4.51;42.20;98042.91;5118727;28;19966;-57
2022/03/13 04:55:45;;;;;;;;;;;;;;;4.48;42.48;98051.28;5119933;28;20000;-57
2022/03/13 04:58:13;;;;;;;;;;;;;;;4.32;42.62;98050.03;5122335;28;19966;-57
2022/03/13 05:00:39;;;;;;;;;;;;;;;4.17;42.60;98046.13;5121914;28;19924;-58
2022/03/13 05:03:06;;;;;;;;;;;;;;;4.29;42.56;98050.47;5120659;28;19950;-57
2022/03/13 05:05:34;;;;;;;;;;;;;;;4.46;42.47;98039.28;5122878;28;19924;-58
2022/03/13 05:08:00;;;;;;;;;;;;;;;4.50;42.17;98051.84;5131408;28;19923;-57
2022/03/13 05:10:36;;;;;;;;;;;;;;;4.36;42.32;98058.31;5126342;28;20417;-58
2022/03/13 05:13:03;;;;;;;;;;;;;;;4.30;42.31;98061.84;5122566;28;19928;-58
2022/03/13 05:15:31;;;;;;;;;;;;;;;4.25;42.35;98065.13;5122685;28;19924;-58
2022/03/13 05:17:57;;;;;;;;;;;;;;;4.33;42.65;98064.06;5125606;28;20363;-58
2022/03/13 05:20:23;;;;;;;;;;;;;;;4.36;42.45;98069.69;5126245;28;19955;-58
2022/03/13 05:22:50;;;;;;;;;;;;;;;4.40;42.23;98071.88;5123973;28;19958;-58
2022/03/13 05:25:16;;;;;;;;;;;;;;;4.39;42.34;98075.56;5122445;28;19931;-59
2022/03/13 05:27:43;;;;;;;;;;;;;;;4.43;42.28;98066.97;5123191;28;19924;-59
2022/03/13 05:30:10;;;;;;;;;;;;;;;4.41;42.28;98068.22;5125816;28;19923;-58
2022/03/13 05:32:38;;;;;;;;;;;;;;;4.43;42.29;98071.44;5125892;28;19996;-57
2022/03/13 05:35:05;;;;;;;;;;;;;;;4.44;42.25;98067.78;5122075;28;20027;-57
2022/03/13 05:37:32;;;;;;;;;;;;;;;4.43;42.19;98072.25;5127240;28;19927;-59
2022/03/13 05:39:58;;;;;;;;;;;;;;;4.41;42.22;98073.50;5125648;28;19962;-58
2022/03/13 05:42:26;;;;;;;;;;;;;;;4.07;42.70;98075.69;5125643;28;19927;-58
2022/03/13 05:44:52;;;;;;;;;;;;;;;4.11;42.76;98084.81;5123354;28;19927;-58
2022/03/13 05:47:19;;;;;;;;;;;;;;;4.14;42.49;98084.38;5122286;28;19971;-59
2022/03/13 05:49:46;;;;;;;;;;;;;;;4.23;42.53;98079.59;5123124;28;19947;-58
2022/03/13 05:52:15;;;;;;;;;;;;;;;4.25;42.56;98088.91;5125552;28;19924;-60
2022/03/13 05:54:41;;;;;;;;;;;;;;;4.26;42.50;98093.19;5124906;28;19919;-58
2022/03/13 05:57:09;;;;;;;;;;;;;;;4.22;42.51;98094.66;5122010;28;19952;-58
2022/03/13 05:59:35;;;;;;;;;;;;;;;4.22;42.51;98096.47;5122115;28;19924;-58
2022/03/13 06:02:03;;;;;;;;;;;;;;;4.25;42.57;98096.84;5113616;28;19942;-58
2022/03/13 06:04:30;;;;;;;;;;;;;;;4.27;42.47;98094.78;5095433;28;19992;-58
2022/03/13 06:06:57;;;;;;;;;;;;;;;4.26;42.37;98098.47;5113128;28;19991;-58
2022/03/13 06:09:24;;;;;;;;;;;;;;;4.19;42.47;98105.66;5121621;28;19987;-58
2022/03/13 06:11:50;;;;;;;;;;;;;;;4.09;42.44;98107.97;5123239;28;19924;-57
2022/03/13 06:14:18;;;;;;;;;;;;;;;4.22;42.60;98107.06;5124339;28;19962;-57
2022/03/13 06:16:44;;;;;;;;;;;;;;;4.27;42.53;98112.50;5123816;28;20016;-59
2022/03/13 06:19:11;;;;;;;;;;;;;;;4.28;42.58;98100.88;5121506;28;20023;-59
2022/03/13 06:21:37;;;;;;;;;;;;;;;4.27;42.19;98105.38;5121625;28;20570;-58
2022/03/13 06:24:05;;;;;;;;;;;;;;;4.38;42.51;98110.97;5106907;28;19937;-58
2022/03/13 06:26:32;;;;;;;;;;;;;;;4.34;42.38;98102.66;5125038;28;19928;-59
2022/03/13 06:28:59;;;;;;;;;;;;;;;4.39;42.12;98109.94;5121741;28;19928;-58
2022/03/13 06:31:25;;;;;;;;;;;;;;;4.48;42.04;98114.75;5121597;28;19931;-59
2022/03/13 06:33:52;;;;;;;;;;;;;;;4.74;42.10;98124.22;5123385;28;19924;-58
2022/03/13 06:36:18;;;;;;;;;;;;;;;4.98;41.70;98109.31;5124654;28;19954;-58
2022/03/13 06:38:44;;;;;;;;;;;;;;;4.98;41.42;98106.66;5129046;28;19955;-59
2022/03/13 06:41:12;;;;;;;;;;;;;;;5.11;41.31;98117.06;5121038;28;19928;-59
2022/03/13 06:43:39;;;;;;;;;;;;;;;5.28;41.33;98124.19;5121558;28;19924;-58
2022/03/13 06:46:06;;;;;;;;;;;;;;;5.47;41.10;98121.50;5124362;28;19935;-58
2022/03/13 06:48:32;;;;;;;;;;;;;;;5.61;40.77;98118.41;5124389;28;19987;-58
2022/03/13 06:50:58;;;;;;;;;;;;;;;5.65;40.43;98121.44;5121244;28;19931;-58
2022/03/13 06:53:25;;;;;;;;;;;;;;;5.55;40.71;98121.16;5120890;28;19924;-59
2022/03/13 06:55:52;;;;;;;;;;;;;;;5.47;40.75;98127.59;5122596;28;19991;-58
2022/03/13 06:58:20;;;;;;;;;;;;;;;5.50;41.07;98126.34;5124299;28;19928;-57
2022/03/13 07:00:48;;;;;;;;;;;;;;;5.78;40.77;98129.19;5122715;28;19951;-57
2022/03/13 07:03:15;;;;;;;;;;;;;;;5.87;40.58;98128.69;5120746;28;19924;-57
2022/03/13 07:05:41;;;;;;;;;;;;;;;5.96;40.55;98129.16;5121042;28;19924;-58
2022/03/13 07:08:07;;;;;;;;;;;;;;;6.04;40.37;98138.59;5129487;28;19931;-58
2022/03/13 07:10:34;;;;;;;;;;;;;;;6.07;39.99;98144.25;5124071;28;19953;-57
2022/03/13 07:13:00;;;;;;;;;;;;;;;5.75;39.76;98141.06;5120350;28;19928;-57
2022/03/13 07:15:31;;;;;;;;;;;;;;;5.62;40.43;98140.44;5120288;28;19924;-57
2022/03/13 07:17:58;;;;;;;;;;;;;;;5.70;40.46;98143.56;5123129;28;19965;-57
2022/03/13 07:20:24;;;;;;;;;;;;;;;5.86;40.17;98142.13;5123811;28;20019;-57
2022/03/13 07:22:51;;;;;;;;;;;;;;;5.85;40.08;98136.03;5121636;28;19923;-57
2022/03/13 07:25:17;;;;;;;;;;;;;;;5.74;39.65;98144.72;5119271;28;19924;-57
2022/03/13 07:27:44;;;;;;;;;;;;;;;5.53;40.25;98139.13;5120942;28;19928;-57
2022/03/13 07:30:13;;;;;;;;;;;;;;;5.56;40.56;98141.31;5123541;28;19924;-58
2022/03/13 07:32:41;;;;;;;;;;;;;;;5.59;40.20;98135.59;5123136;28;19951;-57
2022/03/13 07:35:08;;;;;;;;;;;;;;;5.63;40.41;98142.06;5119847;28;19931;-57
2022/03/13 07:37:34;;;;;;;;;;;;;;;5.64;39.97;98138.34;5124825;28;20011;-57
2022/03/13 07:40:01;;;;;;;;;;;;;;;5.27;40.22;98137.63;5123042;28;19963;-57
2022/03/13 07:42:27;;;;;;;;;;;;;;;5.34;40.45;98128.59;5123374;28;19920;-57
2022/03/13 07:44:54;;;;;;;;;;;;;;;5.45;39.75;98125.16;5120360;28;19924;-57
2022/03/13 07:47:20;;;;;;;;;;;;;;;5.13;40.16;98125.59;5119615;28;20407;-57
2022/03/13 07:49:48;;;;;;;;;;;;;;;5.35;40.67;98124.88;5121008;28;19920;-57
2022/03/13 07:52:14;;;;;;;;;;;;;;;5.49;39.53;98116.75;5123343;28;19931;-58
2022/03/13 07:54:41;;;;;;;;;;;;;;;5.45;38.91;98119.88;5122446;28;19928;-57
2022/03/13 07:57:07;;;;;;;;;;;;;;;5.13;40.04;98120.31;5119521;28;19924;-58
2022/03/13 07:59:33;;;;;;;;;;;;;;;5.51;39.79;98114.72;5119433;28;19955;-58
2022/03/13 08:02:00;;;;;;;;;;;;;;;5.51;40.01;98122.66;5122534;28;19939;-58
2022/03/13 08:04:27;;;;;;;;;;;;;;;5.55;39.62;98118.50;5122739;28;19927;-58
2022/03/13 08:06:55;;;;;;;;;;;;;;;5.55;38.76;98123.81;5119872;28;20006;-58
2022/03/13 08:09:21;;;;;;;;;;;;;;;5.51;39.37;98122.66;5124790;28;19950;-60
2022/03/13 08:11:47;;;;;;;;;;;;;;;5.30;39.60;98116.81;5120658;28;19924;-57
2022/03/13 08:14:14;;;;;;;;;;;;;;;5.21;39.33;98118.16;5122661;28;19991;-57
2022/03/13 08:16:41;;;;;;;;;;;;;;;5.01;38.78;98114.97;5121802;28;20077;-58
2022/03/13 08:19:09;;;;;;;;;;;;;;;4.88;39.48;98118.56;5118967;28;19920;-58
2022/03/13 08:21:35;;;;;;;;;;;;;;;5.02;39.42;98119.22;5101109;28;19944;-57
2022/03/13 08:24:05;;;;;;;;;;;;;;;4.99;39.28;98116.19;5122132;28;19954;-58
2022/03/13 08:26:32;;;;;;;;;;;;;;;5.14;39.30;98116.63;5122379;28;19944;-58
2022/03/13 08:28:58;;;;;;;;;;;;;;;4.82;39.33;98129.22;5119159;28;20481;-56
2022/03/13 08:31:25;;;;;;;;;;;;;;;4.93;39.98;98127.66;5118763;28;19949;-57
2022/03/13 08:33:51;;;;;;;;;;;;;;;5.07;40.02;98127.31;5120363;28;19924;-58
2022/03/13 08:36:18;;;;;;;;;;;;;;;5.10;39.86;98123.41;5122114;28;19932;-58
2022/03/13 08:38:44;;;;;;;;;;;;;;;4.89;40.24;98124.66;5126750;28;19920;-59
2022/03/13 08:41:12;;;;;;;;;;;;;;;4.89;40.25;98122.81;5118352;28;19928;-59
2022/03/13 08:43:38;;;;;;;;;;;;;;;5.00;40.12;98136.34;5118798;28;19970;-59
2022/03/13 08:46:05;;;;;;;;;;;;;;;4.78;40.25;98130.69;5122167;28;19959;-59
2022/03/13 08:48:31;;;;;;;;;;;;;;;4.95;40.31;98125.63;5122293;28;19946;-58
2022/03/13 08:50:58;;;;;;;;;;;;;;;5.15;40.07;98124.34;5119251;28;19932;-58
2022/03/13 08:53:24;;;;;;;;;;;;;;;5.08;39.97;98118.31;5118650;28;19932;-57
2022/03/13 08:55:51;;;;;;;;;;;;;;;5.24;39.32;98122.19;5120258;28;19927;-58
2022/03/13 08:58:18;;;;;;;;;;;;;;;5.27;39.38;98122.56;5104313;28;19941;-57
2022/03/13 09:00:45;;;;;;;;;;;;;;;5.18;39.18;98131.84;5120792;28;19995;-57
2022/03/13 09:03:11;;;;;;;;;;;;;;;5.38;39.66;98129.72;5118691;28;19928;-58
2022/03/13 09:05:38;;;;;;;;;;;;;;;5.75;39.04;98119.84;5118611;28;20003;-58
2022/03/13 09:08:05;;;;;;;;;;;;;;;5.43;39.28;98116.66;5127365;28;19928;-58
2022/03/13 09:10:32;;;;;;;;;;;;;;;5.72;39.21;98124.81;5122087;28;19931;-58
2022/03/13 09:12:58;;;;;;;;;;;;;;;5.74;38.57;98118.22;5118970;28;19930;-58
2022/03/13 09:15:25;;;;;;;;;;;;;;;5.62;38.76;98113.94;5118414;28;19920;-57
2022/03/13 09:17:53;;;;;;;;;;;;;;;5.49;38.62;98114.94;5120465;28;20023;-58
2022/03/13 09:20:20;;;;;;;;;;;;;;;5.58;39.09;98116.22;5122003;28;19946;-57
2022/03/13 09:22:46;;;;;;;;;;;;;;;5.70;39.12;98113.59;5120563;28;19959;-57
2022/03/13 09:25:12;;;;;;;;;;;;;;;5.86;39.33;98123.59;5118320;28;19958;-59
2022/03/13 09:27:39;;;;;;;;;;;;;;;5.68;39.49;98111.19;5118631;28;19951;-59
2022/03/13 09:30:06;;;;;;;;;;;;;;;6.05;39.20;98106.56;5121915;28;19999;-58
2022/03/13 09:32:34;;;;;;;;;;;;;;;5.95;38.48;98101.00;5122023;28;20368;-58
2022/03/13 09:35:00;;;;;;;;;;;;;;;6.00;37.68;98100.34;5118607;28;19996;-57
2022/03/13 09:37:26;;;;;;;;;;;;;;;6.09;36.99;98112.22;5122747;28;19985;-57
2022/03/13 09:39:53;;;;;;;;;;;;;;;6.00;36.87;98113.59;5121776;28;19987;-57
2022/03/13 09:42:20;;;;;;;;;;;;;;;6.30;36.27;98107.16;5122123;28;19930;-58
2022/03/13 09:44:46;;;;;;;;;;;;;;;6.26;36.43;98102.53;5102297;28;19920;-58
2022/03/13 09:47:12;;;;;;;;;;;;;;;6.41;36.36;98106.34;5118473;28;20414;-58
2022/03/13 09:49:41;;;;;;;;;;;;;;;6.44;36.33;98100.56;5121119;28;19995;-58
2022/03/13 09:52:07;;;;;;;;;;;;;;;6.55;36.75;98104.25;5125289;28;19924;-58
2022/03/13 09:54:34;;;;;;;;;;;;;;;6.51;37.17;98103.09;5125327;28;20019;-58
2022/03/13 09:57:01;;;;;;;;;;;;;;;6.68;36.95;98095.25;5122035;28;19928;-58
2022/03/13 09:59:28;;;;;;;;;;;;;;;6.77;37.02;98096.50;5121883;28;19955;-59
2022/03/13 10:01:54;;;;;;;;;;;;;;;6.87;36.68;98092.19;5123839;28;19995;-59
2022/03/13 10:04:20;;;;;;;;;;;;;;;6.79;36.59;98087.25;5125299;28;19990;-58
2022/03/13 10:07:07;;;;;;;;;;;;;;;6.84;37.17;98087.34;5123722;28;19962;-58
2022/03/13 10:09:34;;;;;;;;;;;;;;;6.65;37.38;98095.72;5121447;28;19947;-57
2022/03/13 10:12:08;;;;;;;;;;;;;;;7.15;36.39;98086.09;5124665;28;20083;-57
2022/03/13 10:14:35;;;;;;;;;;;;;;;7.27;36.65;98089.53;5124871;28;19951;-57
2022/03/13 10:17:01;;;;;;;;;;;;;;;7.45;36.11;98089.34;5121438;28;19934;-58
2022/03/13 10:19:28;;;;;;;;;;;;;;;7.45;36.17;98078.72;5121316;28;20019;-58
2022/03/13 10:22:07;;;;;;;;;;;;;;;7.63;35.63;98075.03;5123760;28;19948;-58
2022/03/13 10:24:41;;;;;;;;;;;;;;;7.43;36.19;98075.47;5124789;28;19981;-58
2022/03/13 10:27:14;;;;;;;;;;;;;;;7.66;35.48;98066.59;5137216;27;19946;-58
2022/03/13 10:29:41;;;;;;;;;;;;;;;7.55;35.13;98068.25;5121592;28;19931;-58
2022/03/13 10:32:08;;;;;;;;;;;;;;;7.76;35.53;98064.09;5124548;27;20062;-58
2022/03/13 10:34:34;;;;;;;;;;;;;;;7.90;35.21;98061.91;5124461;28;20408;-58
2022/03/13 10:37:02;;;;;;;;;;;;;;;7.98;34.91;98056.22;5121500;28;19928;-58
2022/03/13 10:39:30;;;;;;;;;;;;;;;8.08;34.91;98051.84;5125787;28;19967;-58
2022/03/13 10:42:01;;;;;;;;;;;;;;;8.16;34.19;98058.63;5123288;28;19955;-58
2022/03/13 10:44:31;;;;;;;;;;;;;;;8.26;34.71;98060.63;5124465;28;19955;-58
2022/03/13 10:46:58;;;;;;;;;;;;;;;8.20;34.81;98051.75;5121491;28;19930;-58
2022/03/13 10:49:37;;;;;;;;;;;;;;;8.26;34.67;98050.78;5120820;28;19946;-58
2022/03/13 10:52:09;;;;;;;;;;;;;;;8.43;33.86;98040.13;5112143;28;20021;-58
2022/03/13 10:54:37;;;;;;;;;;;;;;;8.48;34.08;98048.19;5112273;28;20027;-58
2022/03/13 10:57:05;;;;;;;;;;;;;;;8.79;34.25;98033.41;5120568;28;19939;-58
2022/03/13 10:59:31;;;;;;;;;;;;;;;8.56;34.18;98037.94;5120851;28;19932;-59
2022/03/13 11:02:10;;;;;;;;;;;;;;;8.72;34.61;98035.44;5123240;28;19995;-59
2022/03/13 11:04:36;;;;;;;;;;;;;;;8.85;33.95;98030.53;5124006;28;19987;-58
2022/03/13 11:07:03;;;;;;;;;;;;;;;8.90;33.86;98019.97;5112626;28;20023;-57
2022/03/13 11:09:29;;;;;;;;;;;;;;;9.05;33.38;98030.78;5125359;28;19947;-58
2022/03/13 11:12:10;;;;;;;;;;;;;;;8.87;34.22;98022.31;5122967;28;19924;-58
2022/03/13 11:14:38;;;;;;;;;;;;;;;8.77;33.69;98022.19;5123761;28;19923;-59
2022/03/13 11:17:06;;;;;;;;;;;;;;;9.13;33.50;98025.00;5111755;28;19924;-58
2022/03/13 11:19:36;;;;;;;;;;;;;;;9.10;34.28;98022.03;5093574;28;19932;-58
2022/03/13 11:22:03;;;;;;;;;;;;;;;9.16;34.37;98021.03;5111396;28;19925;-57
2022/03/13 11:24:29;;;;;;;;;;;;;;;9.31;33.82;98023.88;5111288;28;19924;-57
2022/03/13 11:26:57;;;;;;;;;;;;;;;9.35;33.24;98016.97;5111428;28;19961;-57
2022/03/13 11:29:39;;;;;;;;;;;;;;;9.43;33.61;98016.50;5111402;28;19951;-57
2022/03/13 11:32:28;;;;;;;;;;;;;;;9.61;33.14;98018.81;5119802;28;19995;-59
2022/03/13 11:35:09;;;;;;;;;;;;;;;9.39;33.51;98019.94;5121983;28;20000;-59
2022/03/13 11:37:35;;;;;;;;;;;;;;;9.52;33.15;98012.34;5123231;28;19946;-58
2022/03/13 11:40:02;;;;;;;;;;;;;;;9.39;33.40;98010.06;5122888;28;19934;-59
2022/03/13 11:42:44;;;;;;;;;;;;;;;9.77;33.04;98001.06;5123025;28;19931;-58
2022/03/13 11:45:30;;;;;;;;;;;;;;;9.83;33.22;98007.25;5119479;28;19924;-58
2022/03/13 11:47:56;;;;;;;;;;;;;;;9.88;32.20;98005.41;5122090;28;19966;-59
2022/03/13 11:50:27;;;;;;;;;;;;;;;9.69;32.13;97999.66;5104912;28;19923;-59
2022/03/13 11:53:15;;;;;;;;;;;;;;;9.86;33.40;97991.53;5120736;28;19924;-59
2022/03/13 11:55:56;;;;;;;;;;;;;;;10.37;32.55;97990.00;5119931;28;19934;-59
2022/03/13 11:58:39;;;;;;;;;;;;;;;10.03;33.16;97991.38;5122851;28;20350;-60
2022/03/13 12:01:09;;;;;;;;;;;;;;;10.19;33.34;97985.91;5119524;28;20403;-59
2022/03/13 12:03:35;;;;;;;;;;;;;;;10.31;32.84;97991.03;5119342;28;19924;-59
2022/03/13 12:06:02;;;;;;;;;;;;;;;10.47;32.09;97984.72;5122350;28;19991;-58
2022/03/13 12:08:43;;;;;;;;;;;;;;;10.31;32.12;97980.34;5128368;28;19931;-59
2022/03/13 12:11:26;;;;;;;;;;;;;;;10.56;32.27;97967.13;5110945;28;19983;-59
2022/03/13 12:13:54;;;;;;;;;;;;;;;10.44;32.25;97963.88;5111014;28;19943;-58
2022/03/13 12:16:20;;;;;;;;;;;;;;;10.55;32.17;97970.84;5110520;28;19931;-59
2022/03/13 12:18:57;;;;;;;;;;;;;;;10.95;31.93;97964.06;5110439;28;19959;-61
2022/03/13 12:21:23;;;;;;;;;;;;;;;10.65;32.38;97957.53;5101024;28;19924;-59
2022/03/13 12:23:49;;;;;;;;;;;;;;;10.57;32.46;97950.06;5119026;28;19924;-58
2022/03/13 12:26:17;;;;;;;;;;;;;;;10.34;33.36;97947.81;5119005;28;19924;-58
2022/03/13 12:28:43;;;;;;;;;;;;;;;10.62;32.69;97943.91;5119693;28;19931;-58
2022/03/13 12:31:11;;;;;;;;;;;;;;;10.95;31.75;97953.38;5122417;28;19991;-59
2022/03/13 12:33:38;;;;;;;;;;;;;;;10.89;31.92;97944.53;5122482;28;19920;-58
2022/03/13 12:36:04;;;;;;;;;;;;;;;10.94;31.70;97941.88;5118733;28;19928;-58
2022/03/13 12:38:32;;;;;;;;;;;;;;;11.05;31.33;97948.06;5126367;28;19920;-59
2022/03/13 12:40:59;;;;;;;;;;;;;;;11.12;31.30;97932.53;5119077;28;19939;-59
2022/03/13 12:43:26;;;;;;;;;;;;;;;11.24;31.45;97933.88;5118850;28;19993;-58
2022/03/13 12:45:52;;;;;;;;;;;;;;;11.34;31.47;97930.44;5120430;28;19924;-59
2022/03/13 12:48:20;;;;;;;;;;;;;;;11.40;31.29;97926.69;5122137;28;19966;-58
2022/03/13 12:50:47;;;;;;;;;;;;;;;11.57;31.62;97927.22;5120933;28;19962;-58
2022/03/13 12:53:22;;;;;;;;;;;;;;;11.64;30.78;97921.56;5118603;28;19924;-59
2022/03/13 12:55:52;;;;;;;;;;;;;;;11.56;31.13;97922.13;5119985;28;19920;-59
2022/03/13 12:58:19;;;;;;;;;;;;;;;11.80;30.74;97917.84;5121865;28;19931;-59